sensor_id;sensor_type;location;lat;lon;timestamp;pressure;altitude;pressure_sealevel;temperature;humidity
8573;BME280;4324;42.012;24.872;2023-03-23T00:02:22;98913.22;;;10.89;84.24
8573;BME280;4324;42.012;24.872;2023-03-23T00:04:50;98914.22;;;10.88;83.96
8573;BME280;4324;42.012;24.872;2023-03-23T00:07:17;98874.91;;;10.60;83.63
8573;BME280;4324;42.012;24.872;2023-03-23T00:09:46;98905.31;;;10.81;83.91
8573;BME280;4324;42.012;24.872;2023-03-23T00:12:19;98907.13;;;10.80;84.26
8573;BME280;4324;42.012;24.872;2023-03-23T00:14:46;98907.97;;;10.81;84.53
8573;BME280;4324;42.012;24.872;2023-03-23T00:17:13;98903.34;;;10.75;84.47
8573;BME280;4324;42.012;24.872;2023-03-23T00:19:42;98909.59;;;10.82;84.03
8573;BME280;4324;42.012;24.872;2023-03-23T00:22:17;98908.44;;;10.84;83.91
8573;BME280;4324;42.012;24.872;2023-03-23T00:24:46;98900.69;;;10.83;84.19
8573;BME280;4324;42.012;24.872;2023-03-23T00:27:13;98896.22;;;10.83;84.15
8573;BME280;4324;42.012;24.872;2023-03-23T00:29:41;98900.81;;;10.89;84.04
8573;BME280;4324;42.012;24.872;2023-03-23T00:32:11;98899.31;;;10.95;83.58
8573;BME280;4324;42.012;24.872;2023-03-23T00:34:42;98891.03;;;10.98;83.40
8573;BME280;4324;42.012;24.872;2023-03-23T00:37:11;98892.00;;;11.05;83.44
8573;BME280;4324;42.012;24.872;2023-03-23T00:39:38;98897.94;;;11.07;83.50
8573;BME280;4324;42.012;24.872;2023-03-23T00:42:13;98900.09;;;11.04;83.49
8573;BME280;4324;42.012;24.872;2023-03-23T00:44:40;98891.66;;;11.00;83.43
8573;BME280;4324;42.012;24.872;2023-03-23T00:47:07;98890.69;;;10.93;83.36
8573;BME280;4324;42.012;24.872;2023-03-23T00:49:36;98892.03;;;10.89;83.88
8573;BME280;4324;42.012;24.872;2023-03-23T00:52:05;98884.09;;;10.89;84.19
8573;BME280;4324;42.012;24.872;2023-03-23T00:54:33;98880.81;;;10.87;83.98
8573;BME280;4324;42.012;24.872;2023-03-23T00:57:00;98886.09;;;10.87;83.83
8573;BME280;4324;42.012;24.872;2023-03-23T00:59:27;98890.56;;;10.86;83.61
8573;BME280;4324;42.012;24.872;2023-03-23T01:01:54;98881.47;;;10.81;83.48
8573;BME280;4324;42.012;24.872;2023-03-23T01:04:21;98875.38;;;10.72;83.80
8573;BME280;4324;42.012;24.872;2023-03-23T01:06:49;98852.41;;;10.56;84.07
8573;BME280;4324;42.012;24.872;2023-03-23T01:09:19;98879.19;;;10.70;84.09
8573;BME280;4324;42.012;24.872;2023-03-23T01:11:48;98884.50;;;10.70;84.00
8573;BME280;4324;42.012;24.872;2023-03-23T01:14:16;98881.34;;;10.66;84.29
8573;BME280;4324;42.012;24.872;2023-03-23T01:16:43;98851.44;;;10.49;84.45
8573;BME280;4324;42.012;24.872;2023-03-23T01:19:10;98877.88;;;10.65;84.50
8573;BME280;4324;42.012;24.872;2023-03-23T01:21:37;98884.50;;;10.70;84.66
8573;BME280;4324;42.012;24.872;2023-03-23T01:24:05;98889.44;;;10.73;84.20
8573;BME280;4324;42.012;24.872;2023-03-23T01:26:33;98888.28;;;10.67;84.14
8573;BME280;4324;42.012;24.872;2023-03-23T01:29:00;98877.25;;;10.55;84.08
8573;BME280;4324;42.012;24.872;2023-03-23T01:31:27;98883.84;;;10.59;84.41
8573;BME280;4324;42.012;24.872;2023-03-23T01:33:54;98889.28;;;10.66;84.50
8573;BME280;4324;42.012;24.872;2023-03-23T01:36:24;98884.81;;;10.66;84.16
8573;BME280;4324;42.012;24.872;2023-03-23T01:38:52;98895.41;;;10.66;84.16
8573;BME280;4324;42.012;24.872;2023-03-23T01:41:19;98870.63;;;10.51;83.45
8573;BME280;4324;42.012;24.872;2023-03-23T01:43:56;98885.34;;;10.54;83.69
8573;BME280;4324;42.012;24.872;2023-03-23T01:46:25;98906.66;;;10.60;83.82
8573;BME280;4324;42.012;24.872;2023-03-23T01:48:52;98900.41;;;10.53;83.75
8573;BME280;4324;42.012;24.872;2023-03-23T01:51:21;98904.03;;;10.52;83.90
8573;BME280;4324;42.012;24.872;2023-03-23T01:53:50;98899.09;;;10.41;83.82
8573;BME280;4324;42.012;24.872;2023-03-23T01:56:24;98868.66;;;10.21;83.63
8573;BME280;4324;42.012;24.872;2023-03-23T01:58:52;98895.63;;;10.32;84.12
8573;BME280;4324;42.012;24.872;2023-03-23T02:01:22;98889.19;;;10.27;84.21
8573;BME280;4324;42.012;24.872;2023-03-23T02:03:52;98871.63;;;10.17;84.03
8573;BME280;4324;42.012;24.872;2023-03-23T02:06:19;98878.25;;;10.22;83.37
8573;BME280;4324;42.012;24.872;2023-03-23T02:08:48;98895.13;;;10.37;83.45
8573;BME280;4324;42.012;24.872;2023-03-23T02:11:17;98888.53;;;10.33;83.81
8573;BME280;4324;42.012;24.872;2023-03-23T02:13:45;98890.53;;;10.31;84.35
8573;BME280;4324;42.012;24.872;2023-03-23T02:16:20;98877.56;;;10.19;84.45
8573;BME280;4324;42.012;24.872;2023-03-23T02:19:07;98869.97;;;10.08;84.41
8573;BME280;4324;42.012;24.872;2023-03-23T02:22:03;98886.34;;;10.12;84.12
8573;BME280;4324;42.012;24.872;2023-03-23T02:24:59;98872.63;;;10.00;84.06
8573;BME280;4324;42.012;24.872;2023-03-23T02:28:02;98897.94;;;10.11;84.81
8573;BME280;4324;42.012;24.872;2023-03-23T02:30:46;98899.44;;;10.05;84.74
8573;BME280;4324;42.012;24.872;2023-03-23T02:33:29;98892.13;;;9.99;84.48
8573;BME280;4324;42.012;24.872;2023-03-23T02:36:04;98887.34;;;9.94;84.81
8573;BME280;4324;42.012;24.872;2023-03-23T02:38:38;98862.69;;;9.78;85.00
8573;BME280;4324;42.012;24.872;2023-03-23T02:41:08;98894.13;;;9.97;85.72
8573;BME280;4324;42.012;24.872;2023-03-23T02:43:40;98871.97;;;9.82;86.31
8573;BME280;4324;42.012;24.872;2023-03-23T02:46:10;98899.06;;;10.00;85.62
8573;BME280;4324;42.012;24.872;2023-03-23T02:48:39;98901.22;;;10.05;85.44
8573;BME280;4324;42.012;24.872;2023-03-23T02:51:09;98889.81;;;9.96;85.18
8573;BME280;4324;42.012;24.872;2023-03-23T02:53:39;98900.41;;;10.04;85.27
8573;BME280;4324;42.012;24.872;2023-03-23T02:56:08;98900.06;;;10.07;85.33
8573;BME280;4324;42.012;24.872;2023-03-23T02:58:37;98884.03;;;10.01;85.60
8573;BME280;4324;42.012;24.872;2023-03-23T03:01:15;98904.72;;;10.13;85.33
8573;BME280;4324;42.012;24.872;2023-03-23T03:03:44;98884.88;;;10.01;85.04
8573;BME280;4324;42.012;24.872;2023-03-23T03:06:17;98908.50;;;10.19;85.07
8573;BME280;4324;42.012;24.872;2023-03-23T03:08:54;98887.16;;;10.04;85.17
8573;BME280;4324;42.012;24.872;2023-03-23T03:11:26;98925.69;;;10.23;85.18
8573;BME280;4324;42.012;24.872;2023-03-23T03:13:57;98907.38;;;10.13;85.23
8573;BME280;4324;42.012;24.872;2023-03-23T03:16:28;98887.53;;;10.01;85.70
8573;BME280;4324;42.012;24.872;2023-03-23T03:19:02;98933.31;;;10.18;85.55
8573;BME280;4324;42.012;24.872;2023-03-23T03:21:33;98921.91;;;10.17;85.52
8573;BME280;4324;42.012;24.872;2023-03-23T03:24:03;98879.25;;;9.88;86.11
8573;BME280;4324;42.012;24.872;2023-03-23T03:26:31;98925.88;;;10.13;86.30
8573;BME280;4324;42.012;24.872;2023-03-23T03:29:00;98923.56;;;10.18;86.16
8573;BME280;4324;42.012;24.872;2023-03-23T03:31:30;98926.19;;;10.18;86.10
8573;BME280;4324;42.012;24.872;2023-03-23T03:34:00;98927.69;;;10.21;85.59
8573;BME280;4324;42.012;24.872;2023-03-23T03:36:30;98935.47;;;10.23;85.72
8573;BME280;4324;42.012;24.872;2023-03-23T03:39:02;98933.81;;;10.22;85.52
8573;BME280;4324;42.012;24.872;2023-03-23T03:41:31;98936.63;;;10.20;85.83
8573;BME280;4324;42.012;24.872;2023-03-23T03:43:58;98915.44;;;10.04;85.29
8573;BME280;4324;42.012;24.872;2023-03-23T03:46:25;98940.63;;;10.16;85.53
8573;BME280;4324;42.012;24.872;2023-03-23T03:48:55;98943.41;;;10.14;85.30
8573;BME280;4324;42.012;24.872;2023-03-23T03:51:25;98942.75;;;10.12;85.79
8573;BME280;4324;42.012;24.872;2023-03-23T03:53:52;98925.84;;;9.97;85.67
8573;BME280;4324;42.012;24.872;2023-03-23T03:56:20;98945.06;;;10.07;85.86
8573;BME280;4324;42.012;24.872;2023-03-23T03:58:48;98904.69;;;9.81;85.97
8573;BME280;4324;42.012;24.872;2023-03-23T04:01:16;98941.41;;;10.00;85.38
8573;BME280;4324;42.012;24.872;2023-03-23T04:03:44;98949.69;;;10.05;85.45
8573;BME280;4324;42.012;24.872;2023-03-23T04:06:11;98951.16;;;10.00;86.43
8573;BME280;4324;42.012;24.872;2023-03-23T04:08:40;98943.72;;;9.87;86.54
8573;BME280;4324;42.012;24.872;2023-03-23T04:11:08;98959.59;;;9.95;86.17
8573;BME280;4324;42.012;24.872;2023-03-23T04:13:35;98957.94;;;9.94;85.84
8573;BME280;4324;42.012;24.872;2023-03-23T04:16:03;98946.88;;;9.90;85.52
8573;BME280;4324;42.012;24.872;2023-03-23T04:18:30;98962.25;;;9.95;85.83
8573;BME280;4324;42.012;24.872;2023-03-23T04:20:58;98954.63;;;9.92;85.94
8573;BME280;4324;42.012;24.872;2023-03-23T04:23:27;98950.97;;;9.93;86.12
8573;BME280;4324;42.012;24.872;2023-03-23T04:25:57;98937.75;;;9.93;85.67
8573;BME280;4324;42.012;24.872;2023-03-23T04:28:24;98957.28;;;10.08;85.17
8573;BME280;4324;42.012;24.872;2023-03-23T04:30:52;98959.59;;;10.03;85.22
8573;BME280;4324;42.012;24.872;2023-03-23T04:33:19;98948.34;;;9.93;85.42
8573;BME280;4324;42.012;24.872;2023-03-23T04:35:46;98949.34;;;10.00;85.49
8573;BME280;4324;42.012;24.872;2023-03-23T04:38:15;98926.84;;;9.88;84.90
8573;BME280;4324;42.012;24.872;2023-03-23T04:40:43;98952.34;;;10.05;84.11
8573;BME280;4324;42.012;24.872;2023-03-23T04:43:12;98914.63;;;9.87;84.35
8573;BME280;4324;42.012;24.872;2023-03-23T04:45:40;98946.56;;;10.10;84.29
8573;BME280;4324;42.012;24.872;2023-03-23T04:48:10;98947.56;;;10.09;84.37
8573;BME280;4324;42.012;24.872;2023-03-23T04:50:37;98961.59;;;10.09;85.15
8573;BME280;4324;42.012;24.872;2023-03-23T04:53:05;98964.56;;;10.06;85.36
8573;BME280;4324;42.012;24.872;2023-03-23T04:55:33;98961.41;;;10.03;85.31
8573;BME280;4324;42.012;24.872;2023-03-23T04:58:01;98938.06;;;9.90;85.11
8573;BME280;4324;42.012;24.872;2023-03-23T05:00:29;98951.81;;;9.93;84.88
8573;BME280;4324;42.012;24.872;2023-03-23T05:02:56;98951.47;;;9.97;85.21
8573;BME280;4324;42.012;24.872;2023-03-23T05:05:24;98961.25;;;9.96;84.65
8573;BME280;4324;42.012;24.872;2023-03-23T05:07:53;98942.53;;;9.81;84.45
8573;BME280;4324;42.012;24.872;2023-03-23T05:10:20;98949.63;;;9.73;84.24
8573;BME280;4324;42.012;24.872;2023-03-23T05:12:47;98952.41;;;9.71;84.68
8573;BME280;4324;42.012;24.872;2023-03-23T05:15:15;98959.88;;;9.76;84.89
8573;BME280;4324;42.012;24.872;2023-03-23T05:17:44;98868.03;;;9.19;85.16
8573;BME280;4324;42.012;24.872;2023-03-23T05:20:12;98946.31;;;9.70;85.46
8573;BME280;4324;42.012;24.872;2023-03-23T05:22:40;98971.97;;;9.86;85.54
8573;BME280;4324;42.012;24.872;2023-03-23T05:25:08;98937.72;;;9.68;85.49
8573;BME280;4324;42.012;24.872;2023-03-23T05:27:36;98955.25;;;9.78;85.83
8573;BME280;4324;42.012;24.872;2023-03-23T05:30:03;98972.63;;;9.97;86.25
8573;BME280;4324;42.012;24.872;2023-03-23T05:32:31;98974.81;;;10.01;86.50
8573;BME280;4324;42.012;24.872;2023-03-23T05:35:00;98978.97;;;10.20;86.63
8573;BME280;4324;42.012;24.872;2023-03-23T05:37:28;98984.13;;;10.38;86.57
8573;BME280;4324;42.012;24.872;2023-03-23T05:39:57;98984.78;;;10.56;86.37
8573;BME280;4324;42.012;24.872;2023-03-23T05:42:31;98972.53;;;10.63;86.40
8573;BME280;4324;42.012;24.872;2023-03-23T05:44:59;98950.34;;;10.73;86.44
8573;BME280;4324;42.012;24.872;2023-03-23T05:47:26;98987.22;;;11.07;86.15
8573;BME280;4324;42.012;24.872;2023-03-23T05:49:55;98988.97;;;11.23;85.78
8573;BME280;4324;42.012;24.872;2023-03-23T05:52:23;98993.59;;;11.29;85.83
8573;BME280;4324;42.012;24.872;2023-03-23T05:54:50;98998.88;;;11.37;85.87
8573;BME280;4324;42.012;24.872;2023-03-23T05:57:17;99007.75;;;11.52;85.86
8573;BME280;4324;42.012;24.872;2023-03-23T05:59:47;99003.28;;;11.53;85.69
8573;BME280;4324;42.012;24.872;2023-03-23T06:02:14;99016.88;;;11.58;85.45
8573;BME280;4324;42.012;24.872;2023-03-23T06:04:41;99027.63;;;11.56;85.32
8573;BME280;4324;42.012;24.872;2023-03-23T06:07:08;99027.00;;;11.54;85.27
8573;BME280;4324;42.012;24.872;2023-03-23T06:09:39;99012.59;;;11.49;85.52
8573;BME280;4324;42.012;24.872;2023-03-23T06:12:08;99033.25;;;11.61;85.80
8573;BME280;4324;42.012;24.872;2023-03-23T06:14:35;99021.13;;;11.67;85.21
8573;BME280;4324;42.012;24.872;2023-03-23T06:17:03;99031.25;;;11.72;85.39
8573;BME280;4324;42.012;24.872;2023-03-23T06:19:30;99018.00;;;11.63;85.46
8573;BME280;4324;42.012;24.872;2023-03-23T06:21:57;99036.84;;;11.77;85.52
8573;BME280;4324;42.012;24.872;2023-03-23T06:24:24;99035.50;;;11.81;85.51
8573;BME280;4324;42.012;24.872;2023-03-23T06:26:53;99029.69;;;11.85;85.53
8573;BME280;4324;42.012;24.872;2023-03-23T06:29:20;99001.41;;;11.70;85.25
8573;BME280;4324;42.012;24.872;2023-03-23T06:31:49;99024.66;;;11.99;85.42
8573;BME280;4324;42.012;24.872;2023-03-23T06:34:18;99021.63;;;12.10;85.30
8573;BME280;4324;42.012;24.872;2023-03-23T06:36:45;99028.81;;;12.24;85.45
8573;BME280;4324;42.012;24.872;2023-03-23T06:39:12;99030.25;;;12.35;85.22
8573;BME280;4324;42.012;24.872;2023-03-23T06:41:39;99020.63;;;12.34;84.87
8573;BME280;4324;42.012;24.872;2023-03-23T06:44:08;99004.41;;;12.29;84.85
8573;BME280;4324;42.012;24.872;2023-03-23T06:46:39;99011.13;;;12.40;84.96
8573;BME280;4324;42.012;24.872;2023-03-23T06:49:06;99018.22;;;12.47;84.83
8573;BME280;4324;42.012;24.872;2023-03-23T06:51:34;99036.97;;;12.69;84.61
8573;BME280;4324;42.012;24.872;2023-03-23T06:54:01;99039.09;;;12.73;84.51
8573;BME280;4324;42.012;24.872;2023-03-23T06:56:28;99045.44;;;12.87;84.11
8573;BME280;4324;42.012;24.872;2023-03-23T06:58:55;99049.41;;;12.91;84.27
8573;BME280;4324;42.012;24.872;2023-03-23T07:01:23;99023.53;;;12.85;84.31
8573;BME280;4324;42.012;24.872;2023-03-23T07:03:50;99032.09;;;12.95;84.12
8573;BME280;4324;42.012;24.872;2023-03-23T07:06:17;99043.38;;;13.12;84.13
8573;BME280;4324;42.012;24.872;2023-03-23T07:08:44;99043.94;;;13.22;83.95
8573;BME280;4324;42.012;24.872;2023-03-23T07:11:12;99039.94;;;13.26;83.92
8573;BME280;4324;42.012;24.872;2023-03-23T07:13:39;99036.38;;;13.34;83.76
8573;BME280;4324;42.012;24.872;2023-03-23T07:16:07;99037.66;;;13.38;83.46
8573;BME280;4324;42.012;24.872;2023-03-23T07:18:35;99040.88;;;13.48;83.15
8573;BME280;4324;42.012;24.872;2023-03-23T07:21:02;99035.84;;;13.53;83.16
8573;BME280;4324;42.012;24.872;2023-03-23T07:23:30;99052.41;;;13.70;82.95
8573;BME280;4324;42.012;24.872;2023-03-23T07:25:57;99034.06;;;13.75;83.02
8573;BME280;4324;42.012;24.872;2023-03-23T07:28:25;99048.69;;;14.01;82.59
8573;BME280;4324;42.012;24.872;2023-03-23T07:30:52;99053.38;;;14.14;82.61
8573;BME280;4324;42.012;24.872;2023-03-23T07:33:20;99033.69;;;14.15;82.14
8573;BME280;4324;42.012;24.872;2023-03-23T07:35:48;99043.03;;;14.25;82.25
8573;BME280;4324;42.012;24.872;2023-03-23T07:38:15;99056.50;;;14.39;81.84
8573;BME280;4324;42.012;24.872;2023-03-23T07:40:43;99007.44;;;14.12;81.75
8573;BME280;4324;42.012;24.872;2023-03-23T07:43:10;99057.50;;;14.38;81.62
8573;BME280;4324;42.012;24.872;2023-03-23T07:45:36;99046.78;;;14.31;81.63
8573;BME280;4324;42.012;24.872;2023-03-23T07:48:04;99063.78;;;14.30;81.54
8573;BME280;4324;42.012;24.872;2023-03-23T07:50:31;99066.63;;;14.28;81.86
8573;BME280;4324;42.012;24.872;2023-03-23T07:53:02;99060.66;;;14.26;81.85
8573;BME280;4324;42.012;24.872;2023-03-23T07:55:29;99068.28;;;14.29;81.62
8573;BME280;4324;42.012;24.872;2023-03-23T07:57:56;99074.44;;;14.30;81.62
8573;BME280;4324;42.012;24.872;2023-03-23T08:00:24;99065.41;;;14.31;81.53
8573;BME280;4324;42.012;24.872;2023-03-23T08:02:52;99046.81;;;14.16;81.48
8573;BME280;4324;42.012;24.872;2023-03-23T08:05:21;99064.88;;;14.36;81.35
8573;BME280;4324;42.012;24.872;2023-03-23T08:07:49;99056.44;;;14.32;80.99
8573;BME280;4324;42.012;24.872;2023-03-23T08:10:19;99059.97;;;14.18;81.05
8573;BME280;4324;42.012;24.872;2023-03-23T08:12:51;99071.63;;;14.17;81.24
8573;BME280;4324;42.012;24.872;2023-03-23T08:15:21;99076.75;;;14.18;81.24
8573;BME280;4324;42.012;24.872;2023-03-23T08:17:49;99082.47;;;14.00;81.20
8573;BME280;4324;42.012;24.872;2023-03-23T08:20:17;99075.72;;;13.83;81.30
8573;BME280;4324;42.012;24.872;2023-03-23T08:22:48;99058.19;;;13.74;81.64
8573;BME280;4324;42.012;24.872;2023-03-23T08:25:15;99072.69;;;13.86;81.90
8573;BME280;4324;42.012;24.872;2023-03-23T08:27:44;99053.13;;;13.79;81.44
8573;BME280;4324;42.012;24.872;2023-03-23T08:30:13;99073.50;;;13.87;81.48
8573;BME280;4324;42.012;24.872;2023-03-23T08:32:41;99044.69;;;13.75;81.36
8573;BME280;4324;42.012;24.872;2023-03-23T08:35:09;99042.59;;;13.71;81.29
8573;BME280;4324;42.012;24.872;2023-03-23T08:37:36;99070.31;;;13.91;81.57
8573;BME280;4324;42.012;24.872;2023-03-23T08:40:05;99048.19;;;13.91;81.39
8573;BME280;4324;42.012;24.872;2023-03-23T08:42:35;99071.34;;;14.12;81.33
8573;BME280;4324;42.012;24.872;2023-03-23T08:45:05;99067.38;;;14.22;80.85
8573;BME280;4324;42.012;24.872;2023-03-23T08:47:34;99069.31;;;14.28;80.63
8573;BME280;4324;42.012;24.872;2023-03-23T08:50:01;99049.09;;;14.19;80.50
8573;BME280;4324;42.012;24.872;2023-03-23T08:52:28;99060.38;;;14.36;80.49
8573;BME280;4324;42.012;24.872;2023-03-23T08:54:55;99059.09;;;14.32;79.94
8573;BME280;4324;42.012;24.872;2023-03-23T08:57:22;99064.31;;;14.40;79.96
8573;BME280;4324;42.012;24.872;2023-03-23T08:59:49;99048.41;;;14.47;79.94
8573;BME280;4324;42.012;24.872;2023-03-23T09:02:18;99066.06;;;14.69;79.52
8573;BME280;4324;42.012;24.872;2023-03-23T09:04:45;99054.16;;;14.72;79.32
8573;BME280;4324;42.012;24.872;2023-03-23T09:07:12;99027.66;;;14.64;78.96
8573;BME280;4324;42.012;24.872;2023-03-23T09:09:41;98966.13;;;14.37;78.69
8573;BME280;4324;42.012;24.872;2023-03-23T09:12:08;99049.09;;;14.98;78.53
8573;BME280;4324;42.012;24.872;2023-03-23T09:14:36;99043.94;;;14.97;77.75
8573;BME280;4324;42.012;24.872;2023-03-23T09:17:04;99047.56;;;14.89;77.81
8573;BME280;4324;42.012;24.872;2023-03-23T09:19:34;99067.88;;;14.90;77.69
8573;BME280;4324;42.012;24.872;2023-03-23T09:22:03;99074.38;;;14.81;77.76
8573;BME280;4324;42.012;24.872;2023-03-23T09:24:30;99063.69;;;14.60;77.89
8573;BME280;4324;42.012;24.872;2023-03-23T09:27:00;99068.22;;;14.59;78.01
8573;BME280;4324;42.012;24.872;2023-03-23T09:29:27;99064.41;;;14.68;78.23
8573;BME280;4324;42.012;24.872;2023-03-23T09:31:54;99069.03;;;14.81;77.80
8573;BME280;4324;42.012;24.872;2023-03-23T09:34:21;99070.16;;;14.93;77.51
8573;BME280;4324;42.012;24.872;2023-03-23T09:36:50;99030.09;;;14.87;77.10
8573;BME280;4324;42.012;24.872;2023-03-23T09:39:17;99051.41;;;15.08;76.71
8573;BME280;4324;42.012;24.872;2023-03-23T09:42:04;99060.56;;;15.27;76.38
8573;BME280;4324;42.012;24.872;2023-03-23T09:44:42;99057.78;;;15.42;76.39
8573;BME280;4324;42.012;24.872;2023-03-23T09:47:16;99049.28;;;15.60;76.29
8573;BME280;4324;42.012;24.872;2023-03-23T09:49:51;99016.66;;;15.64;75.82
8573;BME280;4324;42.012;24.872;2023-03-23T09:52:21;99058.53;;;15.99;75.51
8573;BME280;4324;42.012;24.872;2023-03-23T09:54:51;99054.81;;;15.93;75.27
8573;BME280;4324;42.012;24.872;2023-03-23T09:57:28;99045.50;;;15.82;74.95
8573;BME280;4324;42.012;24.872;2023-03-23T10:00:00;99047.09;;;15.70;74.65
8573;BME280;4324;42.012;24.872;2023-03-23T10:02:34;99047.09;;;15.70;74.75
8573;BME280;4324;42.012;24.872;2023-03-23T10:05:19;99021.34;;;15.56;75.23
8573;BME280;4324;42.012;24.872;2023-03-23T10:07:50;99030.13;;;15.84;75.00
8573;BME280;4324;42.012;24.872;2023-03-23T10:10:17;99032.84;;;15.97;74.73
8573;BME280;4324;42.012;24.872;2023-03-23T10:12:49;99042.78;;;16.17;74.31
8573;BME280;4324;42.012;24.872;2023-03-23T10:15:21;99041.16;;;16.29;74.01
8573;BME280;4324;42.012;24.872;2023-03-23T10:17:54;99044.25;;;16.26;73.73
8573;BME280;4324;42.012;24.872;2023-03-23T10:20:37;99038.47;;;16.23;73.49
8573;BME280;4324;42.012;24.872;2023-03-23T10:23:20;99032.25;;;16.09;73.24
8573;BME280;4324;42.012;24.872;2023-03-23T10:25:52;99035.13;;;16.07;73.23
8573;BME280;4324;42.012;24.872;2023-03-23T10:28:35;99012.56;;;16.10;73.29
8573;BME280;4324;42.012;24.872;2023-03-23T10:31:03;99009.06;;;16.16;73.06
8573;BME280;4324;42.012;24.872;2023-03-23T10:33:35;99025.97;;;16.36;72.82
8573;BME280;4324;42.012;24.872;2023-03-23T10:36:07;99024.53;;;16.54;72.63
8573;BME280;4324;42.012;24.872;2023-03-23T10:38:40;99022.09;;;16.72;72.18
8573;BME280;4324;42.012;24.872;2023-03-23T10:41:11;99011.84;;;16.89;71.94
8573;BME280;4324;42.012;24.872;2023-03-23T10:43:39;98992.09;;;16.97;71.75
8573;BME280;4324;42.012;24.872;2023-03-23T10:46:26;99005.84;;;17.20;70.57
8573;BME280;4324;42.012;24.872;2023-03-23T10:48:58;99005.22;;;17.25;70.06
8573;BME280;4324;42.012;24.872;2023-03-23T10:51:29;99004.78;;;17.34;70.01
8573;BME280;4324;42.012;24.872;2023-03-23T10:54:01;99007.44;;;17.48;69.78
8573;BME280;4324;42.012;24.872;2023-03-23T10:56:35;99005.16;;;17.58;69.15
8573;BME280;4324;42.012;24.872;2023-03-23T10:59:11;98997.72;;;17.60;67.97
8573;BME280;4324;42.012;24.872;2023-03-23T11:01:43;98998.50;;;17.67;67.19
8573;BME280;4324;42.012;24.872;2023-03-23T11:04:12;98959.28;;;17.41;66.08
8573;BME280;4324;42.012;24.872;2023-03-23T11:06:43;99005.72;;;17.73;65.82
8573;BME280;4324;42.012;24.872;2023-03-23T11:09:15;98991.94;;;17.76;65.40
8573;BME280;4324;42.012;24.872;2023-03-23T11:11:48;98987.59;;;17.75;64.50
8573;BME280;4324;42.012;24.872;2023-03-23T11:14:17;98984.06;;;17.68;63.15
8573;BME280;4324;42.012;24.872;2023-03-23T11:16:50;98999.91;;;17.83;63.34
8573;BME280;4324;42.012;24.872;2023-03-23T11:19:23;99000.69;;;17.90;63.28
8573;BME280;4324;42.012;24.872;2023-03-23T11:21:52;98991.00;;;17.96;63.36
8573;BME280;4324;42.012;24.872;2023-03-23T11:24:23;98992.22;;;18.00;62.32
8573;BME280;4324;42.012;24.872;2023-03-23T11:26:52;98954.38;;;17.83;62.47
8573;BME280;4324;42.012;24.872;2023-03-23T11:29:21;98947.66;;;18.05;62.57
8573;BME280;4324;42.012;24.872;2023-03-23T11:31:52;98987.78;;;18.50;62.33
8573;BME280;4324;42.012;24.872;2023-03-23T11:34:21;98974.06;;;18.65;62.11
8573;BME280;4324;42.012;24.872;2023-03-23T11:36:51;98964.94;;;18.73;62.27
8573;BME280;4324;42.012;24.872;2023-03-23T11:39:23;98972.66;;;18.88;62.28
8573;BME280;4324;42.012;24.872;2023-03-23T11:41:51;98964.00;;;18.85;62.09
8573;BME280;4324;42.012;24.872;2023-03-23T11:44:18;98967.69;;;18.91;62.07
8573;BME280;4324;42.012;24.872;2023-03-23T11:46:55;98962.44;;;18.96;62.53
8573;BME280;4324;42.012;24.872;2023-03-23T11:49:32;98967.16;;;19.01;61.80
8573;BME280;4324;42.012;24.872;2023-03-23T11:52:08;98968.75;;;18.83;62.17
8573;BME280;4324;42.012;24.872;2023-03-23T11:54:41;98875.50;;;18.10;62.38
8573;BME280;4324;42.012;24.872;2023-03-23T11:57:11;98959.41;;;18.61;63.01
8573;BME280;4324;42.012;24.872;2023-03-23T11:59:39;98954.94;;;18.55;63.51
8573;BME280;4324;42.012;24.872;2023-03-23T12:02:31;98955.72;;;18.62;63.94
8573;BME280;4324;42.012;24.872;2023-03-23T12:05:25;98960.81;;;18.70;64.55
8573;BME280;4324;42.012;24.872;2023-03-23T12:08:03;98943.78;;;18.58;64.30
8573;BME280;4324;42.012;24.872;2023-03-23T12:10:41;98960.94;;;18.82;64.05
8573;BME280;4324;42.012;24.872;2023-03-23T12:13:23;98950.94;;;18.71;64.05
8573;BME280;4324;42.012;24.872;2023-03-23T12:16:00;98971.97;;;18.67;64.25
8573;BME280;4324;42.012;24.872;2023-03-23T12:18:40;98951.06;;;18.51;64.29
8573;BME280;4324;42.012;24.872;2023-03-23T12:21:14;98955.97;;;18.54;64.01
8573;BME280;4324;42.012;24.872;2023-03-23T12:23:50;98907.09;;;18.27;63.83
8573;BME280;4324;42.012;24.872;2023-03-23T12:26:23;98964.19;;;18.59;63.39
8573;BME280;4324;42.012;24.872;2023-03-23T12:29:23;98956.56;;;18.31;63.55
8573;BME280;4324;42.012;24.872;2023-03-23T12:32:05;98962.84;;;18.18;63.43
8573;BME280;4324;42.012;24.872;2023-03-23T12:34:41;98965.00;;;18.03;63.51
8573;BME280;4324;42.012;24.872;2023-03-23T12:37:29;98958.47;;;17.92;64.00
8573;BME280;4324;42.012;24.872;2023-03-23T12:40:22;98968.38;;;17.85;63.95
8573;BME280;4324;42.012;24.872;2023-03-23T12:42:57;98967.19;;;17.81;64.08
8573;BME280;4324;42.012;24.872;2023-03-23T12:45:47;98961.81;;;17.81;64.34
8573;BME280;4324;42.012;24.872;2023-03-23T12:48:20;98949.84;;;17.83;64.04
8573;BME280;4324;42.012;24.872;2023-03-23T12:51:03;98958.91;;;17.82;63.47
8573;BME280;4324;42.012;24.872;2023-03-23T12:53:38;98961.41;;;17.84;63.39
8573;BME280;4324;42.012;24.872;2023-03-23T12:56:13;98953.75;;;17.87;63.61
8573;BME280;4324;42.012;24.872;2023-03-23T12:58:47;98958.88;;;17.89;63.32
8573;BME280;4324;42.012;24.872;2023-03-23T13:01:19;98949.84;;;17.83;63.26
8573;BME280;4324;42.012;24.872;2023-03-23T13:03:52;98957.66;;;17.92;63.16
8573;BME280;4324;42.012;24.872;2023-03-23T13:06:26;98955.56;;;17.94;63.27
8573;BME280;4324;42.012;24.872;2023-03-23T13:08:58;98931.28;;;17.88;63.08
8573;BME280;4324;42.012;24.872;2023-03-23T13:11:32;98950.59;;;17.97;62.83
8573;BME280;4324;42.012;24.872;2023-03-23T13:14:08;98947.34;;;17.88;62.68
8573;BME280;4324;42.012;24.872;2023-03-23T13:16:43;98950.50;;;17.79;62.75
8573;BME280;4324;42.012;24.872;2023-03-23T13:19:19;98956.06;;;17.71;62.65
8573;BME280;4324;42.012;24.872;2023-03-23T13:21:54;98947.47;;;17.62;62.31
8573;BME280;4324;42.012;24.872;2023-03-23T13:24:26;98958.56;;;17.65;61.81
8573;BME280;4324;42.012;24.872;2023-03-23T13:26:55;98959.38;;;17.66;61.98
8573;BME280;4324;42.012;24.872;2023-03-23T13:29:24;98943.72;;;17.70;62.10
8573;BME280;4324;42.012;24.872;2023-03-23T13:32:05;98955.97;;;17.90;61.86